Main page
METAR-TAF:

METAR-TAF

Airports :

Balıkesir Koca Seyit Airport

Edremit, Turkey

latitude: 39-33-16N, longitude: 27-00-49E, elevation: 15 m

Current weather observation

The report was made 12 hours and 43 minutes ago, at 14:50 UTC
Wind 4 kt from the North/Northwest, varying between West/Northwest and North
Temperature 20°C
Humidity 68%
Pressure 1007 hPa
Visibility 10 km or more
Few clouds at a height of 3000 ft, Cumulonimbus.
Scattered clouds at a height of 3300 ft

METAR: LTFD 021450Z 33004KT 290V350 9999 FEW030CB SCT033 20/14 Q1007 RETS

Time: 06:33 (03:33 UTC)

Forecast

The report was made 1 hour and 53 minutes ago, at 01:40 UTC
Forecast valid from 03 at 03 UTC to 03 at 12 UTC
Wind 2 kt from variable directions
Visibility 10 km or more
no clouds below 1500 m and no cumulonimbus

TAF: LTFD 030140Z 0303/0312 VRB02KT CAVOK

Weather observations and forecasts of more than 4000 airports (METAR and TAF reports).

The available stations are represented by yellow and red dots on the map.

Hover mouse over dot to see the name of the station.

Then click to see weather observations and forecasts.

To change the map : click on the green buttons with a black cross to zoom in, on the green button with a dash to zoom out, or on the green arrows for adjacent maps.


METAR-TAF: